Time;durP1;ratioP1;P1;durP2;ratioP2;P2;SDS_P1;SDS_P2;PMS_P1;PMS_P2;Temp;Humidity;BMP_temperature;BMP_pressure;BME280_temperature;BME280_humidity;BME280_pressure;Samples;Min_cycle;Max_cycle;Signal;HPM_P1;HPM_P2
2022/08/20 00:00:42;;;;;;;3.15;1.00;;;;;;;13.97;100.00;100444.25;5044995;28;20067;-87
2022/08/20 00:03:35;;;;;;;4.63;1.23;;;;;;;14.05;100.00;100455.22;5033903;28;20071;-87
2022/08/20 00:06:10;;;;;;;3.95;1.00;;;;;;;14.01;100.00;100441.38;5039457;28;20072;-87
2022/08/20 00:08:37;;;;;;;4.38;0.98;;;;;;;13.70;100.00;100426.44;5049811;28;20468;-87
2022/08/20 00:11:07;;;;;;;4.53;1.20;;;;;;;13.72;100.00;100426.38;5044599;28;20045;-87
2022/08/20 00:13:42;;;;;;;6.82;1.52;;;;;;;13.64;100.00;100427.66;5044229;28;20057;-87
2022/08/20 00:16:11;;;;;;;5.40;1.20;;;;;;;13.53;100.00;100431.78;5044016;28;20541;-87
2022/08/20 00:18:40;;;;;;;6.53;1.30;;;;;;;13.72;100.00;100429.00;5050751;28;20053;-87
2022/08/20 00:21:10;;;;;;;5.70;1.25;;;;;;;13.84;100.00;100421.25;5050840;28;20057;-87
2022/08/20 00:23:47;;;;;;;5.60;1.10;;;;;;;13.99;100.00;100434.53;5051864;28;20048;-87
2022/08/20 00:26:14;;;;;;;5.00;1.35;;;;;;;13.79;100.00;100428.59;5050593;28;20051;-87
2022/08/20 00:28:41;;;;;;;5.28;1.15;;;;;;;13.91;100.00;100432.31;5051131;28;20049;-87
2022/08/20 00:31:10;;;;;;;5.47;1.13;;;;;;;14.00;100.00;100437.03;5051896;28;20045;-87
2022/08/20 00:33:38;;;;;;;3.95;1.23;;;;;;;13.94;100.00;100434.78;5052603;28;20413;-87
2022/08/20 00:36:08;;;;;;;5.75;1.05;;;;;;;13.95;100.00;100433.84;5051343;28;20045;-87
2022/08/20 00:38:36;;;;;;;3.95;1.05;;;;;;;13.76;100.00;100426.13;5052034;28;20049;-87
2022/08/20 00:41:06;;;;;;;4.55;1.10;;;;;;;13.66;100.00;100432.84;5052205;28;20063;-87
2022/08/20 00:43:42;;;;;;;6.88;1.42;;;;;;;13.50;100.00;100417.03;5054902;28;20539;-86
2022/08/20 00:46:15;;;;;;;7.78;1.10;;;;;;;13.42;100.00;100422.72;5054485;28;20041;-87
2022/08/20 00:48:46;;;;;;;2.60;0.90;;;;;;;13.25;100.00;100399.94;5053992;28;20045;-86
2022/08/20 00:51:26;;;;;;;3.67;1.15;;;;;;;13.24;100.00;100421.91;5055660;28;20053;-87
2022/08/20 00:54:01;;;;;;;6.15;1.38;;;;;;;13.28;100.00;100412.91;5054661;28;20048;-86
2022/08/20 00:56:32;;;;;;;5.63;1.50;;;;;;;13.19;100.00;100413.44;5054055;28;20124;-87
2022/08/20 00:58:59;;;;;;;7.45;1.33;;;;;;;13.30;100.00;100418.09;5040285;28;20041;-87
2022/08/20 01:01:27;;;;;;;3.40;0.98;;;;;;;13.41;100.00;100415.75;5048444;28;20044;-87
2022/08/20 01:03:55;;;;;;;3.83;1.05;;;;;;;13.46;100.00;100413.72;5038655;28;20127;-87
2022/08/20 01:06:23;;;;;;;4.45;1.00;;;;;;;13.54;100.00;100418.56;5053984;28;20037;-87
2022/08/20 01:08:51;;;;;;;6.35;1.10;;;;;;;13.37;100.00;100406.34;5053959;28;20051;-86
2022/08/20 01:11:21;;;;;;;3.80;1.08;;;;;;;13.37;100.00;100411.63;5054470;28;20060;-86
2022/08/20 01:13:48;;;;;;;3.85;1.00;;;;;;;13.08;100.00;100374.56;5053707;28;20131;-87
2022/08/20 01:16:22;;;;;;;8.75;1.27;;;;;;;13.06;100.00;100404.47;5053355;28;20049;-87
2022/08/20 01:18:50;;;;;;;3.80;1.13;;;;;;;13.21;100.00;100390.53;5055154;28;20052;-87
2022/08/20 01:21:27;;;;;;;4.32;1.17;;;;;;;13.36;100.00;100409.91;5044222;28;20052;-87
2022/08/20 01:24:10;;;;;;;3.33;0.90;;;;;;;13.20;100.00;100416.91;5045257;28;20053;-87
2022/08/20 01:26:41;;;;;;;3.45;1.02;;;;;;;13.11;100.00;100402.47;5053645;28;20045;-87
2022/08/20 01:29:22;;;;;;;5.53;1.10;;;;;;;13.24;100.00;100416.66;5054221;28;20059;-87
2022/08/20 01:31:49;;;;;;;5.05;1.08;;;;;;;13.19;100.00;100402.91;5040504;28;20051;-87
2022/08/20 01:34:18;;;;;;;7.53;1.05;;;;;;;13.15;100.00;100403.97;5053833;28;20063;-86
2022/08/20 01:36:48;;;;;;;4.90;0.88;;;;;;;13.06;100.00;100397.44;5053639;28;20041;-87
2022/08/20 01:39:19;;;;;;;3.05;1.00;;;;;;;12.97;100.00;100368.19;5042263;28;20057;-87
2022/08/20 01:41:58;;;;;;;6.47;1.10;;;;;;;13.01;100.00;100396.84;5051986;28;20059;-87
2022/08/20 01:44:25;;;;;;;4.30;1.30;;;;;;;12.98;100.00;100377.75;5055049;28;20045;-87
2022/08/20 01:46:54;;;;;;;4.60;1.10;;;;;;;13.17;100.00;100388.13;5055171;28;20422;-87
2022/08/20 01:49:31;;;;;;;5.30;1.20;;;;;;;13.19;100.00;100391.53;5053975;28;20106;-87
2022/08/20 01:52:01;;;;;;;5.55;1.30;;;;;;;13.15;100.00;100384.75;5052908;28;20052;-87
2022/08/20 01:54:31;;;;;;;5.18;1.13;;;;;;;12.87;100.00;100384.44;5053234;28;20056;-87
2022/08/20 01:57:09;;;;;;;7.00;1.40;;;;;;;12.89;100.00;100379.97;5054081;28;20041;-87
2022/08/20 01:59:35;;;;;;;3.63;0.90;;;;;;;12.81;100.00;100352.38;5052748;28;20083;-87
2022/08/20 02:02:03;;;;;;;6.28;1.17;;;;;;;13.14;100.00;100380.41;5053088;28;20045;-87
2022/08/20 02:04:30;;;;;;;5.88;1.58;;;;;;;12.74;100.00;100346.59;5053103;28;20128;-87
2022/08/20 02:07:00;;;;;;;6.25;1.38;;;;;;;12.85;100.00;100390.69;5044860;28;20068;-87
2022/08/20 02:09:38;;;;;;;4.97;1.08;;;;;;;12.94;100.00;100369.19;5053170;28;20388;-87
2022/08/20 02:12:07;;;;;;;5.28;1.40;;;;;;;12.61;100.00;100371.84;5040230;28;20052;-87
2022/08/20 02:14:39;;;;;;;9.93;1.77;;;;;;;12.47;100.00;100377.78;5049780;28;20045;-87
2022/08/20 02:17:06;;;;;;;5.38;1.40;;;;;;;12.40;100.00;100352.78;5053139;28;20041;-87
2022/08/20 02:19:41;;;;;;;7.47;1.38;;;;;;;12.35;100.00;100364.34;5039515;28;20045;-87
2022/08/20 02:22:16;;;;;;;10.50;1.90;;;;;;;12.31;100.00;100368.06;5053196;28;20052;-87
2022/08/20 02:24:43;;;;;;;10.73;1.60;;;;;;;12.39;100.00;100344.03;5036142;28;20673;-87
2022/08/20 02:27:10;;;;;;;9.02;1.98;;;;;;;12.38;100.00;100349.34;5059863;28;20407;-87
2022/08/20 02:29:37;;;;;;;8.02;1.60;;;;;;;12.24;100.00;100355.34;5053512;28;20057;-86
2022/08/20 02:32:05;;;;;;;9.82;1.88;;;;;;;12.23;100.00;100345.75;5045817;28;20060;-86
2022/08/20 02:34:51;;;;;;;11.25;1.80;;;;;;;12.08;100.00;100335.09;5052405;28;20056;-86
2022/08/20 02:37:18;;;;;;;12.82;2.08;;;;;;;12.12;100.00;100341.03;5048383;28;20073;-86
2022/08/20 02:39:45;;;;;;;6.43;1.20;;;;;;;12.45;100.00;100353.41;5048745;28;20071;-87
2022/08/20 02:42:13;;;;;;;9.73;2.10;;;;;;;12.22;100.00;100351.94;5047102;28;20095;-86
2022/08/20 02:44:40;;;;;;;6.40;1.60;;;;;;;12.06;100.00;100336.97;5052806;28;20049;-86
2022/08/20 02:47:07;;;;;;;9.77;1.88;;;;;;;12.16;100.00;100332.06;5050788;28;20051;-87
2022/08/20 02:49:34;;;;;;;10.18;2.35;;;;;;;12.12;100.00;100335.78;5040937;28;20052;-87
2022/08/20 02:52:01;;;;;;;8.65;1.60;;;;;;;12.28;100.00;100331.44;5052609;28;20079;-86
2022/08/20 02:54:28;;;;;;;11.40;1.65;;;;;;;12.06;100.00;100334.34;5052446;28;20040;-87
2022/08/20 02:56:55;;;;;;;9.82;1.63;;;;;;;11.97;100.00;100324.31;5052000;28;20041;-87
2022/08/20 02:59:22;;;;;;;7.95;1.50;;;;;;;12.17;100.00;100331.16;5038550;28;20060;-87
2022/08/20 03:01:51;;;;;;;6.10;1.60;;;;;;;11.92;100.00;100300.06;5052429;28;20402;-87
2022/08/20 03:04:29;;;;;;;9.52;1.55;;;;;;;11.82;100.00;100293.53;5052402;28;20052;-87
2022/08/20 03:06:57;;;;;;;8.38;1.70;;;;;;;12.03;100.00;100307.41;5052666;28;20044;-86
2022/08/20 03:09:24;;;;;;;4.93;1.27;;;;;;;12.17;100.00;100293.59;5038491;28;20045;-86
2022/08/20 03:11:51;;;;;;;6.53;1.40;;;;;;;11.91;100.00;100299.19;5039184;28;20517;-87
2022/08/20 03:14:18;;;;;;;6.50;1.40;;;;;;;12.07;100.00;100283.53;5053727;28;20063;-88
2022/08/20 03:16:45;;;;;;;7.50;1.50;;;;;;;12.01;100.00;100283.03;5038421;28;20680;-88
2022/08/20 03:19:12;;;;;;;5.28;1.20;;;;;;;12.33;100.00;100310.22;5053162;28;20045;-88
2022/08/20 03:21:39;;;;;;;10.02;1.58;;;;;;;12.20;100.00;100301.28;5052196;28;20055;-87
2022/08/20 03:24:07;;;;;;;5.80;1.40;;;;;;;12.07;100.00;100259.91;5053196;28;20446;-87
2022/08/20 03:26:34;;;;;;;6.63;1.50;;;;;;;12.34;100.00;100285.66;5051184;28;20056;-87
2022/08/20 03:29:01;;;;;;;6.57;1.40;;;;;;;12.38;100.00;100286.34;5039018;28;20040;-86
2022/08/20 03:31:28;;;;;;;6.82;1.40;;;;;;;12.44;100.00;100284.25;5051442;28;20055;-87
2022/08/20 03:33:55;;;;;;;3.55;1.10;;;;;;;12.51;100.00;100277.75;5052567;28;20052;-87
2022/08/20 03:36:24;;;;;;;4.68;1.20;;;;;;;12.44;100.00;100263.25;5052321;28;20037;-87
2022/08/20 03:38:59;;;;;;;4.87;1.20;;;;;;;12.34;100.00;100264.66;5052193;28;20084;-87
2022/08/20 03:41:27;;;;;;;4.50;1.63;;;;;;;12.35;100.00;100246.19;5042066;28;20049;-87
2022/08/20 03:43:54;;;;;;;7.32;1.63;;;;;;;12.15;100.00;100238.53;5034778;28;20515;-86
2022/08/20 03:46:21;;;;;;;6.78;1.50;;;;;;;12.08;100.00;100211.75;5053594;28;20472;-86
2022/08/20 03:48:53;;;;;;;5.50;1.10;;;;;;;12.41;100.00;100229.31;5038242;28;20416;-86
2022/08/20 03:51:28;;;;;;;5.63;1.20;;;;;;;12.31;100.00;100226.31;5052787;28;20136;-86
2022/08/20 03:53:55;;;;;;;4.50;1.27;;;;;;;12.36;100.00;100223.44;5052218;28;20123;-86
2022/08/20 03:56:22;;;;;;;5.47;1.50;;;;;;;12.28;100.00;100197.59;5052060;28;20055;-86
2022/08/20 03:58:48;;;;;;;11.77;1.92;;;;;;;12.19;100.00;100199.88;5051671;28;20057;-87
2022/08/20 04:01:16;;;;;;;11.13;2.38;;;;;;;12.37;100.00;100200.66;5038744;28;20045;-87
2022/08/20 04:04:03;;;;;;;12.48;2.05;;;;;;;12.49;100.00;100210.50;5051926;28;20060;-87
2022/08/20 04:06:30;;;;;;;9.75;1.77;;;;;;;12.31;100.00;100154.59;5052890;28;20045;-87
2022/08/20 04:08:57;;;;;;;7.28;1.65;;;;;;;12.47;100.00;100175.59;5053292;28;20479;-87
2022/08/20 04:11:24;;;;;;;11.18;2.40;;;;;;;12.58;100.00;100181.09;5048003;28;20140;-87
2022/08/20 04:13:51;;;;;;;14.50;2.13;;;;;;;12.80;100.00;100203.56;5044935;28;20053;-87
2022/08/20 04:16:18;;;;;;;26.15;2.65;;;;;;;12.70;100.00;100175.19;5052711;28;20049;-87
2022/08/20 04:18:47;;;;;;;12.10;2.10;;;;;;;12.85;100.00;100201.53;5035902;28;20056;-87
2022/08/20 04:21:29;;;;;;;13.77;2.30;;;;;;;12.81;100.00;100166.69;5050156;28;20125;-87
2022/08/20 04:23:59;;;;;;;7.95;1.58;;;;;;;12.80;100.00;100193.06;5045996;28;20052;-87
2022/08/20 04:26:27;;;;;;;10.85;2.03;;;;;;;13.02;100.00;100190.94;5055448;28;20045;-86
2022/08/20 04:28:54;;;;;;;7.60;1.73;;;;;;;13.07;100.00;100193.31;5055232;28;20045;-87
2022/08/20 04:31:31;;;;;;;7.45;1.70;;;;;;;12.75;100.00;100143.41;5041713;28;20049;-87
2022/08/20 04:34:03;;;;;;;12.85;2.40;;;;;;;12.81;100.00;100165.88;5046694;28;20133;-87
2022/08/20 04:36:30;;;;;;;10.63;1.92;;;;;;;12.57;100.00;100118.16;5049628;28;20466;-87
2022/08/20 04:38:57;;;;;;;12.77;2.20;;;;;;;12.48;100.00;100144.03;5036476;28;20049;-86
2022/08/20 04:41:23;;;;;;;10.90;2.20;;;;;;;12.60;100.00;100146.88;5049111;28;20052;-86
2022/08/20 04:43:52;;;;;;;11.15;1.95;;;;;;;12.61;100.00;100159.94;5053473;28;20053;-86
2022/08/20 04:46:24;;;;;;;8.73;1.90;;;;;;;12.67;100.00;100159.59;5044096;28;20098;-87
2022/08/20 04:48:51;;;;;;;17.63;2.60;;;;;;;12.63;100.00;100163.31;5054907;28;20471;-87
2022/08/20 04:51:19;;;;;;;9.73;2.05;;;;;;;12.47;100.00;100171.19;5055001;28;20048;-87
2022/08/20 04:53:52;;;;;;;11.00;2.55;;;;;;;12.52;100.00;100139.44;5054734;28;20396;-87
2022/08/20 04:56:25;;;;;;;13.23;2.65;;;;;;;12.76;100.00;100160.00;5035865;28;20050;-87
2022/08/20 04:58:54;;;;;;;8.98;2.22;;;;;;;12.61;100.00;100153.84;5048246;28;20064;-87
2022/08/20 05:01:22;;;;;;;17.90;3.30;;;;;;;12.60;100.00;100166.13;5055621;28;20059;-86
2022/08/20 05:03:50;;;;;;;12.02;2.15;;;;;;;12.69;100.00;100164.75;5054792;28;20049;-86
2022/08/20 05:06:17;;;;;;;17.55;3.05;;;;;;;12.48;100.00;100165.03;5049920;28;20046;-86
2022/08/20 05:08:44;;;;;;;13.15;2.65;;;;;;;12.70;100.00;100153.34;5052006;28;20646;-86
2022/08/20 05:11:13;;;;;;;11.45;2.58;;;;;;;12.70;100.00;100161.22;5051418;28;20607;-86
2022/08/20 05:14:00;;;;;;;7.72;2.05;;;;;;;12.88;100.00;100159.34;5046964;28;20124;-87
2022/08/20 05:16:27;;;;;;;9.80;2.50;;;;;;;12.85;100.00;100152.44;5055774;28;20459;-87
2022/08/20 05:18:53;;;;;;;10.27;2.10;;;;;;;13.01;100.00;100173.44;5055569;28;20079;-85
2022/08/20 05:21:20;;;;;;;11.20;2.17;;;;;;;12.72;100.00;100146.22;5055977;28;20718;-86
2022/08/20 05:23:47;;;;;;;14.18;1.98;;;;;;;12.83;100.00;100154.31;5056208;28;20052;-87
2022/08/20 05:26:15;;;;;;;9.43;2.10;;;;;;;12.68;100.00;100139.44;5054599;28;20131;-86
2022/08/20 05:28:44;;;;;;;9.32;1.67;;;;;;;12.96;100.00;100145.75;5036071;28;20471;-87
2022/08/20 05:31:28;;;;;;;13.30;2.35;;;;;;;12.53;100.00;100104.34;5038104;28;20051;-87
2022/08/20 05:34:10;;;;;;;9.27;2.30;;;;;;;12.78;100.00;100143.22;5055948;28;20148;-86
2022/08/20 05:36:41;;;;;;;10.95;2.20;;;;;;;12.86;100.00;100122.63;5057030;28;20049;-85
2022/08/20 05:39:09;;;;;;;13.50;2.15;;;;;;;12.94;100.00;100153.72;5048107;28;20073;-86
2022/08/20 05:41:37;;;;;;;8.18;2.03;;;;;;;13.13;100.00;100152.69;5051442;28;20053;-87
2022/08/20 05:44:09;;;;;;;11.77;3.30;;;;;;;13.13;100.00;100145.63;5055960;28;20052;-87
2022/08/20 05:46:39;;;;;;;17.25;2.45;;;;;;;13.07;100.00;100131.06;5056197;28;20045;-86
2022/08/20 05:49:08;;;;;;;15.88;2.28;;;;;;;13.14;100.00;100105.28;5055903;28;20045;-86
2022/08/20 05:51:36;;;;;;;14.40;2.42;;;;;;;13.07;100.00;100112.66;5055574;28;20049;-86
2022/08/20 05:54:04;;;;;;;8.60;2.25;;;;;;;13.23;100.00;100125.78;5055689;28;20140;-87
2022/08/20 05:56:31;;;;;;;14.25;2.45;;;;;;;12.67;100.00;100082.59;5056493;28;20041;-86
2022/08/20 05:59:03;;;;;;;8.43;2.03;;;;;;;13.23;100.00;100115.25;5042582;28;20128;-86
2022/08/20 06:01:30;;;;;;;14.68;3.00;;;;;;;13.15;100.00;100112.22;5049001;28;20132;-86
2022/08/20 06:06:43;;;;;;;7.75;2.25;;;;;;;13.65;100.00;100113.69;5039916;28;20056;-85
2022/08/20 06:09:17;;;;;;;13.77;2.60;;;;;;;13.77;100.00;100111.22;5036367;28;20045;-85
2022/08/20 06:12:04;;;;;;;8.18;2.13;;;;;;;13.53;100.00;100071.47;5036292;28;20057;-86
2022/08/20 06:14:32;;;;;;;12.25;3.47;;;;;;;13.51;100.00;100032.13;5035478;28;20057;-86
2022/08/20 06:17:04;;;;;;;8.20;1.88;;;;;;;13.98;100.00;100093.28;5048864;28;20049;-87
2022/08/20 06:19:33;;;;;;;10.07;2.10;;;;;;;13.72;100.00;100052.78;5035120;28;20057;-86
2022/08/20 06:22:01;;;;;;;7.97;2.05;;;;;;;14.09;100.00;100090.81;5043053;28;20136;-87
2022/08/20 06:24:43;;;;;;;8.38;2.30;;;;;;;14.00;100.00;100050.13;5054448;28;20136;-88
2022/08/20 06:27:13;;;;;;;9.27;2.05;;;;;;;13.99;100.00;100022.13;5045392;28;20120;-87
2022/08/20 06:29:40;;;;;;;9.40;2.08;;;;;;;14.04;100.00;100014.78;5034968;28;20443;-87
2022/08/20 06:32:07;;;;;;;10.40;1.90;;;;;;;14.27;100.00;100024.78;5034514;28;20395;-87
2022/08/20 06:34:34;;;;;;;18.65;2.70;;;;;;;14.40;100.00;100041.50;5053846;28;20048;-87
2022/08/20 06:37:01;;;;;;;12.25;2.25;;;;;;;14.52;100.00;100063.53;5055133;28;20048;-87
2022/08/20 06:39:29;;;;;;;10.55;2.35;;;;;;;14.54;100.00;100040.59;5054692;28;20052;-87
2022/08/20 06:41:57;;;;;;;9.32;2.15;;;;;;;14.18;100.00;99992.00;5054488;28;20053;-86
2022/08/20 06:44:24;;;;;;;12.25;2.95;;;;;;;14.16;100.00;100018.41;5055271;28;20049;-87
2022/08/20 06:46:51;;;;;;;18.70;3.33;;;;;;;13.97;100.00;99997.69;5053927;28;20048;-88
2022/08/20 06:49:18;;;;;;;13.07;2.65;;;;;;;14.28;100.00;100022.06;5035298;28;20411;-87
2022/08/20 06:51:45;;;;;;;17.02;2.50;;;;;;;13.81;100.00;99944.34;5045037;28;20083;-87
2022/08/20 06:54:17;;;;;;;16.52;4.28;;;;;;;14.03;100.00;99970.13;5053867;28;20049;-87
2022/08/20 06:56:44;;;;;;;13.50;3.13;;;;;;;14.35;100.00;99980.38;5054360;28;20127;-87
2022/08/20 06:59:10;;;;;;;14.00;3.03;;;;;;;14.50;100.00;99953.03;5054389;28;20061;-86
2022/08/20 07:01:37;;;;;;;18.88;3.67;;;;;;;14.54;100.00;99975.59;5054298;28;20135;-87
2022/08/20 07:04:06;;;;;;;14.93;3.15;;;;;;;14.47;100.00;99939.22;5046550;28;20076;-86
2022/08/20 07:06:33;;;;;;;20.13;3.67;;;;;;;14.54;100.00;99965.03;5036123;28;20057;-87
2022/08/20 07:09:00;;;;;;;12.65;2.92;;;;;;;14.40;100.00;99944.88;5040222;28;20053;-86
2022/08/20 07:11:26;;;;;;;15.55;3.50;;;;;;;14.43;100.00;99946.50;5053989;28;20055;-87
2022/08/20 07:13:57;;;;;;;16.65;3.58;;;;;;;14.51;100.00;99930.16;5055774;28;20071;-87
2022/08/20 07:16:24;;;;;;;17.20;3.08;;;;;;;15.04;100.00;99981.06;5053798;28;20049;-87
2022/08/20 07:18:51;;;;;;;13.05;3.03;;;;;;;14.59;100.00;99917.38;5040273;28;20419;-87
2022/08/20 07:21:17;;;;;;;14.15;2.75;;;;;;;14.77;100.00;99949.53;5043585;28;20048;-88
2022/08/20 07:23:44;;;;;;;16.30;2.90;;;;;;;14.47;100.00;99928.69;5033267;28;20059;-87
2022/08/20 07:26:12;;;;;;;16.73;3.33;;;;;;;14.21;100.00;99916.28;5036702;28;20056;-87
2022/08/20 07:28:39;;;;;;;15.40;4.05;;;;;;;14.47;100.00;99913.72;5053689;28;20045;-87
2022/08/20 07:33:52;;;;;;;21.13;3.65;;;;;;;14.49;100.00;99924.16;5055102;28;20052;-88
2022/08/20 07:36:19;;;;;;;15.18;3.55;;;;;;;14.47;100.00;99862.84;5051504;28;20049;-87
2022/08/20 07:38:46;;;;;;;15.00;3.25;;;;;;;14.54;100.00;99890.47;5033958;28;20056;-87
2022/08/20 07:41:13;;;;;;;19.33;3.58;;;;;;;14.84;100.00;99890.19;5043555;28;20045;-89
2022/08/20 07:43:44;;;;;;;14.38;3.80;;;;;;;15.40;100.00;99905.59;5055826;28;20045;-87
2022/08/20 07:46:16;;;;;;;18.27;3.33;;;;;;;15.78;100.00;99927.63;5056774;28;20052;-88
2022/08/20 07:48:48;;;;;;;12.27;2.38;;;;;;;16.37;100.00;99898.59;5054093;28;20448;-88
2022/08/20 07:51:18;;;;;;;20.15;3.97;;;;;;;16.72;100.00;99915.38;5055022;28;20471;-88
2022/08/20 07:53:47;;;;;;;19.10;3.55;;;;;;;16.46;100.00;99929.59;5044801;28;20055;-89
2022/08/20 07:56:18;;;;;;;11.77;2.50;;;;;;;16.39;100.00;99943.38;5039064;28;20049;-89
2022/08/20 07:58:48;;;;;;;12.82;2.65;;;;;;;16.40;100.00;99990.00;5044591;28;20050;-89
2022/08/20 08:01:24;;;;;;;11.98;2.45;;;;;;;16.13;100.00;99954.09;5037396;28;20083;-89
2022/08/20 08:03:53;;;;;;;14.88;3.17;;;;;;;16.00;100.00;99979.69;5048351;28;20136;-89
2022/08/20 08:06:22;;;;;;;13.70;3.45;;;;;;;16.01;100.00;99987.50;5039739;28;20079;-90
2022/08/20 08:09:08;;;;;;;15.95;3.03;;;;;;;15.87;100.00;99951.53;5037068;28;20124;-89
2022/08/20 08:11:39;;;;;;;13.50;2.20;;;;;;;16.11;100.00;99980.63;5043158;28;20045;-90
2022/08/20 08:14:12;;;;;;;16.02;3.03;;;;;;;15.88;100.00;99957.66;5046072;28;20099;-90
2022/08/20 08:16:43;;;;;;;17.48;3.55;;;;;;;15.85;100.00;99949.97;5055848;28;20081;-90
2022/08/20 08:19:13;;;;;;;15.25;2.90;;;;;;;15.87;100.00;99895.28;5054525;28;20147;-88
2022/08/20 08:21:40;;;;;;;18.33;3.00;;;;;;;16.08;100.00;99863.81;5047354;28;20049;-89
2022/08/20 08:24:07;;;;;;;18.15;3.42;;;;;;;16.70;100.00;99904.94;5042326;28;20041;-87
2022/08/20 08:26:34;;;;;;;9.43;2.17;;;;;;;17.08;100.00;99874.69;5046622;28;20124;-88
2022/08/20 08:29:02;;;;;;;12.75;2.70;;;;;;;16.68;100.00;99878.63;5043337;28;20053;-89
2022/08/20 08:31:28;;;;;;;11.50;2.60;;;;;;;17.10;100.00;99840.19;5045309;28;20053;-89
2022/08/20 08:33:55;;;;;;;12.05;3.08;;;;;;;17.48;100.00;99845.06;5039004;28;20125;-90
2022/08/20 08:36:25;;;;;;;10.50;2.35;;;;;;;17.45;100.00;99869.13;5053852;28;20050;-90
2022/08/20 08:38:53;;;;;;;8.73;2.10;;;;;;;17.50;100.00;99874.06;5046026;28;20053;-89
2022/08/20 08:41:30;;;;;;;8.77;2.30;;;;;;;17.81;100.00;99930.66;5049337;28;20080;-90
2022/08/20 08:44:09;;;;;;;11.20;2.25;;;;;;;17.33;100.00;99888.63;5056347;28;20045;-90
2022/08/20 08:46:42;;;;;;;14.45;2.60;;;;;;;17.53;100.00;99916.16;5053899;28;20388;-90
2022/08/20 08:49:13;;;;;;;7.65;2.17;;;;;;;16.95;100.00;99879.28;5045786;28;20052;-90
2022/08/20 08:51:54;;;;;;;13.25;2.20;;;;;;;17.04;100.00;99881.19;5044471;28;20056;-89
2022/08/20 08:54:25;;;;;;;7.80;1.83;;;;;;;17.67;100.00;99899.16;5050928;28;20046;-89
2022/08/20 08:56:53;;;;;;;8.63;1.90;;;;;;;17.91;100.00;99886.63;5055431;28;20056;-89
2022/08/20 08:59:21;;;;;;;8.93;2.10;;;;;;;17.47;100.00;99824.84;5052677;28;20049;-89
2022/08/20 09:01:52;;;;;;;8.05;1.80;;;;;;;18.51;100.00;99896.72;5050424;28;20084;-90
2022/08/20 09:04:31;;;;;;;6.35;1.75;;;;;;;17.81;100.00;99835.34;5047756;28;20124;-90
2022/08/20 09:07:01;;;;;;;5.75;1.45;;;;;;;18.03;100.00;99875.00;5055624;28;20099;-91
2022/08/20 09:09:32;;;;;;;7.65;1.60;;;;;;;17.70;100.00;99832.75;5059633;28;20132;-88
2022/08/20 09:12:07;;;;;;;7.97;1.50;;;;;;;17.58;100.00;99842.50;5053508;28;20077;-90
2022/08/20 09:14:34;;;;;;;6.47;1.25;;;;;;;17.39;100.00;99838.72;5048179;28;20462;-89
2022/08/20 09:17:01;;;;;;;7.28;1.58;;;;;;;17.64;100.00;99924.09;5053621;28;20110;-90
2022/08/20 09:19:28;;;;;;;4.78;1.15;;;;;;;17.57;100.00;99875.25;5051114;28;20133;-89
2022/08/20 09:21:55;;;;;;;5.85;1.30;;;;;;;17.65;100.00;99881.63;5058361;28;20092;-90
2022/08/20 09:24:22;;;;;;;6.35;1.50;;;;;;;18.00;100.00;99904.38;5061578;28;20053;-89
2022/08/20 09:26:49;;;;;;;7.70;1.55;;;;;;;17.40;100.00;99864.19;5058027;28;20045;-89
2022/08/20 09:29:17;;;;;;;6.05;1.70;;;;;;;17.58;100.00;99890.16;5060113;28;20053;-89
2022/08/20 09:31:44;;;;;;;7.25;1.70;;;;;;;17.76;100.00;99903.72;5055136;28;20054;-89
2022/08/20 09:34:12;;;;;;;5.32;1.40;;;;;;;17.24;100.00;99839.94;5061654;28;20131;-89
2022/08/20 09:36:39;;;;;;;5.55;1.42;;;;;;;18.50;100.00;99897.66;5060034;28;20051;-89
2022/08/20 09:39:06;;;;;;;6.93;1.50;;;;;;;18.52;100.00;99893.06;5047760;28;20041;-90
2022/08/20 09:41:33;;;;;;;6.13;1.40;;;;;;;18.93;100.00;99907.34;5064097;28;20418;-89
2022/08/20 09:44:01;;;;;;;4.05;1.30;;;;;;;18.99;100.00;99906.78;5063295;28;20071;-89
2022/08/20 09:46:28;;;;;;;4.97;1.40;;;;;;;19.15;100.00;99871.81;5060746;28;20091;-89
2022/08/20 09:48:55;;;;;;;4.15;1.10;;;;;;;19.09;100.00;99820.13;5056519;28;20118;-90
2022/08/20 09:51:23;;;;;;;5.30;1.48;;;;;;;19.52;100.00;99887.97;5061710;28;20120;-89
2022/08/20 09:53:51;;;;;;;4.28;1.40;;;;;;;19.89;100.00;99911.28;5056794;28;20084;-89
2022/08/20 09:56:18;;;;;;;4.30;1.30;;;;;;;19.80;100.00;99876.75;5051931;28;20057;-88
2022/08/20 09:58:49;;;;;;;4.88;1.30;;;;;;;20.24;100.00;99933.84;5040550;28;20099;-90
2022/08/20 10:01:18;;;;;;;6.07;1.33;;;;;;;20.13;100.00;99930.47;5055013;28;20055;-89
2022/08/20 10:03:47;;;;;;;4.45;1.33;;;;;;;20.53;100.00;99927.66;5047380;28;20055;-89
2022/08/20 10:06:16;;;;;;;4.65;1.50;;;;;;;20.44;100.00;99889.47;5046504;28;20467;-90
2022/08/20 10:08:43;;;;;;;3.13;1.05;;;;;;;20.68;100.00;99877.53;5055620;28;20045;-88
2022/08/20 10:11:12;;;;;;;4.78;1.35;;;;;;;20.74;100.00;99897.44;5047809;28;20113;-89
2022/08/20 10:13:39;;;;;;;5.20;1.35;;;;;;;21.04;100.00;99915.81;5042893;28;20055;-88
2022/08/20 10:16:06;;;;;;;4.28;1.23;;;;;;;21.05;100.00;99882.91;5050022;28;20071;-89
2022/08/20 10:18:34;;;;;;;5.82;1.50;;;;;;;21.07;100.00;99890.75;5053342;28;20055;-89
2022/08/20 10:21:01;;;;;;;4.00;1.17;;;;;;;21.03;100.00;99871.59;5058269;28;20053;-90
2022/08/20 10:23:28;;;;;;;7.00;2.10;;;;;;;21.20;100.00;99842.50;5051025;28;20472;-89
2022/08/20 10:25:54;;;;;;;7.00;1.50;;;;;;;21.27;100.00;99888.84;5059374;28;20063;-89
2022/08/20 10:28:21;;;;;;;5.47;1.30;;;;;;;21.54;100.00;99896.00;5059363;28;20052;-90
2022/08/20 10:30:51;;;;;;;2.55;0.90;;;;;;;21.48;96.90;99867.31;5049629;28;20484;-90
2022/08/20 10:33:18;;;;;;;2.67;0.90;;;;;;;21.59;89.33;99899.06;5057749;28;20120;-89
2022/08/20 10:35:46;;;;;;;3.85;0.80;;;;;;;21.42;90.33;99867.88;5058688;28;20059;-89
2022/08/20 10:38:12;;;;;;;2.97;0.90;;;;;;;21.31;91.44;99886.72;5055734;28;20049;-90
2022/08/20 10:40:40;;;;;;;6.15;1.27;;;;;;;21.21;92.22;99892.94;5055590;28;20054;-90
2022/08/20 10:43:17;;;;;;;5.20;0.90;;;;;;;20.99;88.10;99895.97;5041113;28;20065;-89
2022/08/20 10:45:44;;;;;;;6.45;0.90;;;;;;;20.96;95.43;99866.97;5049126;28;20053;-89
2022/08/20 10:48:11;;;;;;;5.70;1.00;;;;;;;20.91;90.60;99923.31;5060693;28;20053;-89
2022/08/20 10:50:38;;;;;;;5.00;1.10;;;;;;;20.66;94.34;99935.38;5056935;28;20053;-89
2022/08/20 10:53:05;;;;;;;7.35;1.15;;;;;;;20.76;89.65;99920.25;5048432;28;20064;-88
2022/08/20 10:55:31;;;;;;;4.45;1.13;;;;;;;21.04;85.04;99921.13;5041420;28;20056;-87
2022/08/20 10:57:58;;;;;;;5.90;1.17;;;;;;;21.05;79.13;99908.66;5062206;28;20051;-89
2022/08/20 11:00:26;;;;;;;6.10;1.25;;;;;;;20.51;78.55;99876.44;5056943;28;20059;-88
2022/08/20 11:02:53;;;;;;;6.38;1.17;;;;;;;20.48;78.41;99893.50;5045121;28;20092;-88
2022/08/20 11:05:20;;;;;;;7.55;1.10;;;;;;;20.61;76.98;99897.69;5055386;28;20045;-88
2022/08/20 11:07:47;;;;;;;9.68;1.80;;;;;;;20.53;70.06;99950.75;5057698;28;20112;-89
2022/08/20 11:10:25;;;;;;;7.50;1.33;;;;;;;20.00;69.36;99909.50;5045899;28;20079;-88
2022/08/20 11:12:52;;;;;;;4.95;1.30;;;;;;;20.26;71.97;99929.22;5042633;28;20064;-88
2022/08/20 11:15:18;;;;;;;10.82;2.17;;;;;;;20.79;69.65;99927.94;5051797;28;20088;-89
2022/08/20 11:17:45;;;;;;;7.47;1.58;;;;;;;21.15;68.63;99903.31;5055543;28;20045;-87
2022/08/20 11:20:15;;;;;;;7.00;1.30;;;;;;;21.56;64.90;99925.16;5046229;28;20149;-88
2022/08/20 11:22:42;;;;;;;6.10;1.35;;;;;;;21.70;61.32;99905.16;5049892;28;20080;-88
2022/08/20 11:25:10;;;;;;;4.30;1.13;;;;;;;21.52;56.66;99897.97;5043926;28;20053;-88
2022/08/20 11:27:41;;;;;;;8.90;1.83;;;;;;;21.46;55.86;99869.31;5052413;28;20076;-89
2022/08/20 11:30:11;;;;;;;4.13;1.10;;;;;;;21.78;51.97;99915.94;5050925;28;20128;-87
2022/08/20 11:32:38;;;;;;;5.00;0.98;;;;;;;22.08;52.94;99914.72;5047582;28;20056;-89
2022/08/20 11:35:05;;;;;;;7.07;1.30;;;;;;;21.90;50.91;99925.38;5050291;28;20063;-90